F/V Harvestor — WDC8229 — position and weather

sailwx.info

Track history (hours):
 
Tides and Currents Weather Stations Pressure Air Temp Water Temp Dewpoint Dewpoint Depression Visibility Wind Speed Wind Dir Waves Ship Positions

F/V Harvestor

Owner: F/V HARVESTOR INC., EDMONDS, WA. More information available from US FCC via Universal Licensing System and Coast Guard Vessel Documentation Center.

Last reported at 2016-May-27 01:23 UTC. Time now 2016-May-27 02:14 UTC.
Position N 47°11' W 122°49'.

Length 40 m.

Type: Fishing. MMSI: 367083650.

Date/timePositionNaut miles runAvg speedWind from/ knotsBaromVisibWave heightAir tempDewpointWater temp
2016-May-27 01:23N 47°11' W 122°49'7 7.5
2016-May-27 00:29N 47°11' W 122°39'9 9.2
2016-May-26 23:33N 47°19' W 122°33'8 8.0
2016-May-26 22:34N 47°27' W 122°31'8 7.8
2016-May-26 21:33N 47°34' W 122°27'5 4.8
2016-May-26 20:33N 47°38' W 122°23'0 0.0
2016-May-26 19:33N 47°38' W 122°23'0 0.2
2016-May-26 18:33N 47°38' W 122°23'0 0.0
2016-May-24 23:07N 47°38' W 122°23'3 5.1
2016-May-24 22:33N 47°39' W 122°27'8 8.4
2016-May-24 21:33N 47°47' W 122°28'8 8.1
2016-May-24 20:33N 47°55' W 122°31'7 7.3
2016-May-24 19:33N 48°01' W 122°36'6 6.1
2016-May-24 18:33N 48°08' W 122°39'7 5.0
2016-May-24 17:08N 48°12' W 122°46'4 6.6
2016-May-24 16:32N 48°16' W 122°48'9 9.5
2016-May-24 15:33N 48°25' W 122°44'9 8.5
2016-May-24 14:33N 48°33' W 122°41'0 0.0
2016-May-24 13:33N 48°33' W 122°41'0 0.0
2016-May-24 12:33N 48°33' W 122°41'0 0.0
2016-May-24 11:33N 48°33' W 122°41'0 0.0
2016-May-24 10:33N 48°33' W 122°41'0 0.0
2016-May-24 09:33N 48°33' W 122°41'0 0.0
2016-May-24 08:33N 48°33' W 122°41'0 0.0
2016-May-24 07:33N 48°33' W 122°41'0 0.0
2016-May-24 06:33N 48°33' W 122°41'6 5.7
2016-May-24 05:33N 48°28' W 122°43'9 7.6
2016-May-24 04:23N 48°22' W 122°34'6 7.7
2016-May-24 03:33N 48°15' W 122°32'16 7.9
2016-May-24 01:33N 48°01' W 122°21'8 8.2
2016-May-24 00:33N 47°53' W 122°23'8 8.2
2016-May-23 23:33N 47°45' W 122°26'8 7.8
2016-May-23 22:33N 47°37' W 122°27'8 7.9
2016-May-23 21:33N 47°30' W 122°30'9 9.0
2016-May-23 20:33N 47°21' W 122°33'10 8.7
2016-May-23 19:27N 47°12' W 122°38'8 7.7
2016-May-23 18:27N 47°11' W 122°49'3 0.2
2016-May-23 01:31N 47°09' W 122°53'9 7.6
2016-May-23 00:20N 47°11' W 122°40'7 9.5
2016-May-22 23:33N 47°17' W 122°33'9 8.9
2016-May-22 22:33N 47°26' W 122°32'8 8.2
2016-May-22 21:33N 47°33' W 122°27'6 5.5
2016-May-22 20:33N 47°38' W 122°23'0 0.0
2016-May-22 19:33N 47°38' W 122°23'0 0.0
2016-May-22 18:33N 47°38' W 122°23'0 0.0
2016-May-22 17:33N 47°38' W 122°23'0 0.0
2016-May-22 16:33N 47°38' W 122°23'0 0.0
2016-May-22 15:33N 47°38' W 122°23'0 0.0
2016-May-22 14:33N 47°38' W 122°23'0 0.0
2016-May-22 13:33N 47°38' W 122°23'0 0.0
2016-May-22 12:33N 47°38' W 122°23'0 0.0
2016-May-22 11:33N 47°38' W 122°23'0 0.0
2016-May-22 10:33N 47°38' W 122°23'0 0.0
2016-May-22 09:33N 47°38' W 122°23'0 0.0
2016-May-22 08:33N 47°38' W 122°23'0 0.0
2016-May-22 07:33N 47°38' W 122°23'0 0.0
2016-May-22 06:33N 47°38' W 122°23'0 0.0
2016-May-22 05:33N 47°38' W 122°23'0 0.0
2016-May-22 04:33N 47°38' W 122°23'0 0.0
2016-May-22 03:33N 47°38' W 122°23'0 0.0
2016-May-22 02:33N 47°38' W 122°23'0 0.0
2016-May-22 01:33N 47°38' W 122°23'0 0.0
2016-May-22 00:33N 47°38' W 122°23'0 0.0
2016-May-21 23:33N 47°38' W 122°23'0 0.0
2016-May-21 22:33N 47°38' W 122°23'4 4.0
2016-May-21 21:34N 47°40' W 122°28'9 8.8
2016-May-21 20:33N 47°48' W 122°28'8 8.3
2016-May-21 19:33N 47°56' W 122°32'8 7.5
2016-May-21 18:29N 48°03' W 122°39'6 6.1
2016-May-21 17:31N 48°08' W 122°43'5 5.4
2016-May-21 16:32N 48°13' W 122°47'11 9.2
2016-May-21 15:22N 48°23' W 122°43'810.3
2016-May-21 14:33N 48°31' W 122°42'2 2.3
2016-May-21 13:33N 48°33' W 122°41'0 0.1
2016-May-21 12:33N 48°33' W 122°41'7 7.1
2016-May-21 11:33N 48°26' W 122°42'5 1.2
2016-May-21 07:33N 48°25' W 122°36'6 6.3
2016-May-21 06:33N 48°19' W 122°31'8 7.2
2016-May-21 05:28N 48°12' W 122°33'7 7.2
2016-May-21 04:33N 48°06' W 122°28'8 7.2
2016-May-21 03:27N 47°60' W 122°21'6 7.1
2016-May-21 02:33N 47°53' W 122°22'8 7.8
2016-May-21 01:33N 47°46' W 122°25'8 7.9
2016-May-21 00:33N 47°38' W 122°25'2 2.1
2016-May-20 23:33N 47°37' W 122°23'7 7.5
2016-May-20 22:33N 47°31' W 122°29'8 8.1
2016-May-20 21:33N 47°23' W 122°32'6 6.2
2016-May-20 20:33N 47°17' W 122°32'6 5.9
2016-May-20 19:33N 47°12' W 122°38'7 7.3
2016-May-20 18:32N 47°11' W 122°48'1 0.1
2016-May-20 04:33N 47°11' W 122°49'7 7.0
2016-May-20 03:31N 47°12' W 122°39'7 6.9
2016-May-20 02:33N 47°17' W 122°33'7 7.4
2016-May-20 01:33N 47°24' W 122°32'8 8.0
2016-May-20 00:33N 47°32' W 122°29'7 6.9
2016-May-19 23:33N 47°38' W 122°23'0 0.0
2016-May-19 22:33N 47°38' W 122°23'5 5.4
2016-May-19 21:33N 47°43' W 122°26'9 9.2
2016-May-19 20:33N 47°52' W 122°23'9 8.6
2016-May-19 19:33N 48°00' W 122°21'8 8.0
2016-May-19 18:33N 48°06' W 122°29'9 8.1
2016-May-19 17:27N 48°15' W 122°32'10 7.7
2016-May-19 16:08N 48°25' W 122°37'4 7.1
2016-May-19 15:33N 48°27' W 122°43'7 6.9
2016-May-19 14:33N 48°33' W 122°41'0 0.0
2016-May-19 13:33N 48°33' W 122°41'0 0.0
2016-May-19 12:31N 48°33' W 122°41'0 0.0
2016-May-19 11:33N 48°33' W 122°41'4 4.4
2016-May-19 10:33N 48°29' W 122°41'5 5.0
2016-May-19 09:32N 48°24' W 122°38'7 6.7
2016-May-19 08:33N 48°20' W 122°31'8 7.6
2016-May-19 07:32N 48°12' W 122°33'8 7.0
2016-May-19 06:27N 48°05' W 122°27'7 7.2
2016-May-19 05:31N 48°00' W 122°21'7 6.9
2016-May-19 04:33N 47°54' W 122°22'7 7.2
2016-May-19 03:34N 47°47' W 122°25'8 8.2
2016-May-19 02:33N 47°39' W 122°27'8 8.0
2016-May-19 01:33N 47°31' W 122°29'9 9.0
2016-May-19 00:33N 47°22' W 122°32'8 8.0
2016-May-18 23:33N 47°14' W 122°34'10 7.6
2016-May-18 22:11N 47°11' W 122°49'1 0.0
2016-May-18 04:15N 47°11' W 122°50'7 7.3
2016-May-18 03:17N 47°11' W 122°39'5 7.3
2016-May-18 02:33N 47°15' W 122°34'7 6.9
2016-May-18 01:33N 47°22' W 122°32'8 7.9
2016-May-18 00:33N 47°30' W 122°30'8 8.4
2016-May-17 23:33N 47°38' W 122°28'9 8.9
2016-May-17 22:33N 47°47' W 122°28'9 8.9
2016-May-17 21:33N 47°56' W 122°31'10 9.5
2016-May-17 20:33N 48°04' W 122°39'11 9.9
2016-May-17 19:29N 48°12' W 122°49'9 9.1
2016-May-17 18:31N 48°21' W 122°46'9 9.0
2016-May-17 17:33N 48°29' W 122°43'4 4.4
2016-May-17 16:32N 48°33' W 122°41'0 0.0
2016-May-17 15:32N 48°33' W 122°41'0 0.0
2016-May-17 14:33N 48°33' W 122°41'0 0.0
2016-May-17 13:33N 48°33' W 122°41'0 0.0
2016-May-17 12:31N 48°33' W 122°41'0 0.0
2016-May-17 11:33N 48°33' W 122°41'6 5.8
2016-May-17 10:33N 48°28' W 122°43'7 7.3
2016-May-17 09:32N 48°23' W 122°35'8 8.0
2016-May-17 08:32N 48°15' W 122°32'8 7.8
2016-May-17 07:34N 48°08' W 122°31'8 7.7
2016-May-17 06:33N 48°03' W 122°22'7 7.5
2016-May-17 05:33N 47°55' W 122°21'7 7.4
2016-May-17 04:33N 47°48' W 122°25'8 8.4
2016-May-17 03:34N 47°40' W 122°27'8 8.3
2016-May-17 02:33N 47°32' W 122°28'9 9.0
2016-May-17 01:33N 47°23' W 122°32'  
Track history (hours):
 
Tides and Currents Weather Stations Pressure Air Temp Water Temp Dewpoint Dewpoint Depression Visibility Wind Speed Wind Dir Waves Ship Positions

F/V Harvestor

Owner: F/V HARVESTOR INC., EDMONDS, WA. More information available from US FCC via Universal Licensing System and Coast Guard Vessel Documentation Center.

Last reported at 2016-May-27 01:23 UTC. Time now 2016-May-27 02:14 UTC.
Position N 47°11' W 122°49'.

Length 40 m.

Type: Fishing. MMSI: 367083650.

Date/timePositionNaut miles runAvg speedWind from/ knotsBaromVisibWave heightAir tempDewpointWater temp
2016-May-27 01:23N 47°11' W 122°49'7 7.5
2016-May-27 00:29N 47°11' W 122°39'9 9.2
2016-May-26 23:33N 47°19' W 122°33'8 8.0
2016-May-26 22:34N 47°27' W 122°31'8 7.8
2016-May-26 21:33N 47°34' W 122°27'5 4.8
2016-May-26 20:33N 47°38' W 122°23'0 0.0
2016-May-26 19:33N 47°38' W 122°23'0 0.2
2016-May-26 18:33N 47°38' W 122°23'0 0.0
2016-May-24 23:07N 47°38' W 122°23'3 5.1
2016-May-24 22:33N 47°39' W 122°27'8 8.4
2016-May-24 21:33N 47°47' W 122°28'8 8.1
2016-May-24 20:33N 47°55' W 122°31'7 7.3
2016-May-24 19:33N 48°01' W 122°36'6 6.1
2016-May-24 18:33N 48°08' W 122°39'7 5.0
2016-May-24 17:08N 48°12' W 122°46'4 6.6
2016-May-24 16:32N 48°16' W 122°48'9 9.5
2016-May-24 15:33N 48°25' W 122°44'9 8.5
2016-May-24 14:33N 48°33' W 122°41'0 0.0
2016-May-24 13:33N 48°33' W 122°41'0 0.0
2016-May-24 12:33N 48°33' W 122°41'0 0.0
2016-May-24 11:33N 48°33' W 122°41'0 0.0
2016-May-24 10:33N 48°33' W 122°41'0 0.0
2016-May-24 09:33N 48°33' W 122°41'0 0.0
2016-May-24 08:33N 48°33' W 122°41'0 0.0
2016-May-24 07:33N 48°33' W 122°41'0 0.0
2016-May-24 06:33N 48°33' W 122°41'6 5.7
2016-May-24 05:33N 48°28' W 122°43'9 7.6
2016-May-24 04:23N 48°22' W 122°34'6 7.7
2016-May-24 03:33N 48°15' W 122°32'16 7.9
2016-May-24 01:33N 48°01' W 122°21'8 8.2
2016-May-24 00:33N 47°53' W 122°23'8 8.2
2016-May-23 23:33N 47°45' W 122°26'8 7.8
2016-May-23 22:33N 47°37' W 122°27'8 7.9
2016-May-23 21:33N 47°30' W 122°30'9 9.0
2016-May-23 20:33N 47°21' W 122°33'10 8.7
2016-May-23 19:27N 47°12' W 122°38'8 7.7
2016-May-23 18:27N 47°11' W 122°49'3 0.2
2016-May-23 01:31N 47°09' W 122°53'9 7.6
2016-May-23 00:20N 47°11' W 122°40'7 9.5
2016-May-22 23:33N 47°17' W 122°33'9 8.9
2016-May-22 22:33N 47°26' W 122°32'8 8.2
2016-May-22 21:33N 47°33' W 122°27'6 5.5
2016-May-22 20:33N 47°38' W 122°23'0 0.0
2016-May-22 19:33N 47°38' W 122°23'0 0.0
2016-May-22 18:33N 47°38' W 122°23'0 0.0
2016-May-22 17:33N 47°38' W 122°23'0 0.0
2016-May-22 16:33N 47°38' W 122°23'0 0.0
2016-May-22 15:33N 47°38' W 122°23'0 0.0
2016-May-22 14:33N 47°38' W 122°23'0 0.0
2016-May-22 13:33N 47°38' W 122°23'0 0.0
2016-May-22 12:33N 47°38' W 122°23'0 0.0
2016-May-22 11:33N 47°38' W 122°23'0 0.0
2016-May-22 10:33N 47°38' W 122°23'0 0.0
2016-May-22 09:33N 47°38' W 122°23'0 0.0
2016-May-22 08:33N 47°38' W 122°23'0 0.0
2016-May-22 07:33N 47°38' W 122°23'0 0.0
2016-May-22 06:33N 47°38' W 122°23'0 0.0
2016-May-22 05:33N 47°38' W 122°23'0 0.0
2016-May-22 04:33N 47°38' W 122°23'0 0.0
2016-May-22 03:33N 47°38' W 122°23'0 0.0
2016-May-22 02:33N 47°38' W 122°23'0 0.0
2016-May-22 01:33N 47°38' W 122°23'0 0.0
2016-May-22 00:33N 47°38' W 122°23'0 0.0
2016-May-21 23:33N 47°38' W 122°23'0 0.0
2016-May-21 22:33N 47°38' W 122°23'4 4.0
2016-May-21 21:34N 47°40' W 122°28'9 8.8
2016-May-21 20:33N 47°48' W 122°28'8 8.3
2016-May-21 19:33N 47°56' W 122°32'8 7.5
2016-May-21 18:29N 48°03' W 122°39'6 6.1
2016-May-21 17:31N 48°08' W 122°43'5 5.4
2016-May-21 16:32N 48°13' W 122°47'11 9.2
2016-May-21 15:22N 48°23' W 122°43'810.3
2016-May-21 14:33N 48°31' W 122°42'2 2.3
2016-May-21 13:33N 48°33' W 122°41'0 0.1
2016-May-21 12:33N 48°33' W 122°41'7 7.1
2016-May-21 11:33N 48°26' W 122°42'5 1.2
2016-May-21 07:33N 48°25' W 122°36'6 6.3
2016-May-21 06:33N 48°19' W 122°31'8 7.2
2016-May-21 05:28N 48°12' W 122°33'7 7.2
2016-May-21 04:33N 48°06' W 122°28'8 7.2
2016-May-21 03:27N 47°60' W 122°21'6 7.1
2016-May-21 02:33N 47°53' W 122°22'8 7.8
2016-May-21 01:33N 47°46' W 122°25'8 7.9
2016-May-21 00:33N 47°38' W 122°25'2 2.1
2016-May-20 23:33N 47°37' W 122°23'7 7.5
2016-May-20 22:33N 47°31' W 122°29'8 8.1
2016-May-20 21:33N 47°23' W 122°32'6 6.2
2016-May-20 20:33N 47°17' W 122°32'6 5.9
2016-May-20 19:33N 47°12' W 122°38'7 7.3
2016-May-20 18:32N 47°11' W 122°48'1 0.1
2016-May-20 04:33N 47°11' W 122°49'7 7.0
2016-May-20 03:31N 47°12' W 122°39'7 6.9
2016-May-20 02:33N 47°17' W 122°33'7 7.4
2016-May-20 01:33N 47°24' W 122°32'8 8.0
2016-May-20 00:33N 47°32' W 122°29'7 6.9
2016-May-19 23:33N 47°38' W 122°23'0 0.0
2016-May-19 22:33N 47°38' W 122°23'5 5.4
2016-May-19 21:33N 47°43' W 122°26'9 9.2
2016-May-19 20:33N 47°52' W 122°23'9 8.6
2016-May-19 19:33N 48°00' W 122°21'8 8.0
2016-May-19 18:33N 48°06' W 122°29'9 8.1
2016-May-19 17:27N 48°15' W 122°32'10 7.7
2016-May-19 16:08N 48°25' W 122°37'4 7.1
2016-May-19 15:33N 48°27' W 122°43'7 6.9
2016-May-19 14:33N 48°33' W 122°41'0 0.0
2016-May-19 13:33N 48°33' W 122°41'0 0.0
2016-May-19 12:31N 48°33' W 122°41'0 0.0
2016-May-19 11:33N 48°33' W 122°41'4 4.4
2016-May-19 10:33N 48°29' W 122°41'5 5.0
2016-May-19 09:32N 48°24' W 122°38'7 6.7
2016-May-19 08:33N 48°20' W 122°31'8 7.6
2016-May-19 07:32N 48°12' W 122°33'8 7.0
2016-May-19 06:27N 48°05' W 122°27'7 7.2
2016-May-19 05:31N 48°00' W 122°21'7 6.9
2016-May-19 04:33N 47°54' W 122°22'7 7.2
2016-May-19 03:34N 47°47' W 122°25'8 8.2
2016-May-19 02:33N 47°39' W 122°27'8 8.0
2016-May-19 01:33N 47°31' W 122°29'9 9.0
2016-May-19 00:33N 47°22' W 122°32'8 8.0
2016-May-18 23:33N 47°14' W 122°34'10 7.6
2016-May-18 22:11N 47°11' W 122°49'1 0.0
2016-May-18 04:15N 47°11' W 122°50'7 7.3
2016-May-18 03:17N 47°11' W 122°39'5 7.3
2016-May-18 02:33N 47°15' W 122°34'7 6.9
2016-May-18 01:33N 47°22' W 122°32'8 7.9
2016-May-18 00:33N 47°30' W 122°30'8 8.4
2016-May-17 23:33N 47°38' W 122°28'9 8.9
2016-May-17 22:33N 47°47' W 122°28'9 8.9
2016-May-17 21:33N 47°56' W 122°31'10 9.5
2016-May-17 20:33N 48°04' W 122°39'11 9.9
2016-May-17 19:29N 48°12' W 122°49'9 9.1
2016-May-17 18:31N 48°21' W 122°46'9 9.0
2016-May-17 17:33N 48°29' W 122°43'4 4.4
2016-May-17 16:32N 48°33' W 122°41'0 0.0
2016-May-17 15:32N 48°33' W 122°41'0 0.0
2016-May-17 14:33N 48°33' W 122°41'0 0.0
2016-May-17 13:33N 48°33' W 122°41'0 0.0
2016-May-17 12:31N 48°33' W 122°41'0 0.0
2016-May-17 11:33N 48°33' W 122°41'6 5.8
2016-May-17 10:33N 48°28' W 122°43'7 7.3
2016-May-17 09:32N 48°23' W 122°35'8 8.0
2016-May-17 08:32N 48°15' W 122°32'8 7.8
2016-May-17 07:34N 48°08' W 122°31'8 7.7
2016-May-17 06:33N 48°03' W 122°22'7 7.5
2016-May-17 05:33N 47°55' W 122°21'7 7.4
2016-May-17 04:33N 47°48' W 122°25'8 8.4
2016-May-17 03:34N 47°40' W 122°27'8 8.3
2016-May-17 02:33N 47°32' W 122°28'9 9.0
2016-May-17 01:33N 47°23' W 122°32'  

Dump ship's entire track history